Time;durP1;ratioP1;P1;durP2;ratioP2;P2;SDS_P1;SDS_P2;PMS_P1;PMS_P2;Temp;Humidity;BMP_temperature;BMP_pressure;BME280_temperature;BME280_humidity;BME280_pressure;Samples;Min_cycle;Max_cycle;Signal;HPM_P1;HPM_P2
2021/07/03 00:00:46;;;;;;;16.67;11.57;;;;;;;16.27;69.85;98988.78;3579181;40;20061;-64
2021/07/03 00:03:14;;;;;;;13.48;10.60;;;;;;;16.23;70.42;98984.94;3578204;40;20049;-63
2021/07/03 00:05:42;;;;;;;13.93;11.90;;;;;;;16.20;70.08;98985.38;3579200;40;20080;-63
2021/07/03 00:08:09;;;;;;;12.45;10.77;;;;;;;16.17;70.32;98980.53;3580395;40;20066;-64
2021/07/03 00:10:37;;;;;;;12.70;11.50;;;;;;;16.17;70.29;98980.53;3583215;40;20055;-63
2021/07/03 00:13:06;;;;;;;14.02;11.65;;;;;;;16.06;70.47;98975.94;3583682;40;20081;-63
2021/07/03 00:15:34;;;;;;;12.98;10.88;;;;;;;16.04;70.46;98983.34;3583481;40;20029;-65
2021/07/03 00:18:02;;;;;;;12.98;11.57;;;;;;;16.00;70.45;98982.16;3583002;40;20044;-63
2021/07/03 00:20:30;;;;;;;16.60;11.60;;;;;;;15.92;71.29;98977.97;3583748;40;20045;-63
2021/07/03 00:22:58;;;;;;;12.57;11.05;;;;;;;15.92;71.31;98980.63;3583797;40;20376;-63
2021/07/03 00:25:25;;;;;;;11.88;10.45;;;;;;;15.92;71.06;98987.78;3583358;40;20077;-64
2021/07/03 00:27:53;;;;;;;14.25;10.60;;;;;;;15.96;71.23;98984.47;3583005;40;20033;-64
2021/07/03 00:30:22;;;;;;;14.02;11.05;;;;;;;16.02;70.81;98980.91;3583173;40;20048;-63
2021/07/03 00:32:50;;;;;;;12.93;11.20;;;;;;;15.97;70.89;98978.09;3583206;40;20053;-63
2021/07/03 00:35:18;;;;;;;13.13;11.02;;;;;;;15.94;70.78;98970.53;3582905;40;20060;-64
2021/07/03 00:37:46;;;;;;;12.35;10.63;;;;;;;15.90;70.86;98976.53;3582581;40;20045;-64
2021/07/03 00:40:15;;;;;;;13.00;11.38;;;;;;;15.81;71.08;98976.84;3581361;40;20361;-64
2021/07/03 00:42:43;;;;;;;15.73;11.70;;;;;;;15.70;71.54;98977.56;3581454;40;20346;-62
2021/07/03 00:45:12;;;;;;;14.10;12.20;;;;;;;15.68;71.48;98978.84;3581525;40;20060;-64
2021/07/03 00:47:42;;;;;;;13.20;10.88;;;;;;;15.63;71.85;98979.44;3581624;40;20053;-63
2021/07/03 00:50:11;;;;;;;18.05;12.27;;;;;;;15.64;71.51;98977.63;3583074;40;20049;-63
2021/07/03 00:52:43;;;;;;;14.05;12.25;;;;;;;15.59;71.58;98978.25;3582781;40;20040;-63
2021/07/03 00:55:18;;;;;;;13.05;10.77;;;;;;;15.53;72.11;98979.97;3583179;40;20380;-63
2021/07/03 00:57:47;;;;;;;12.18;10.90;;;;;;;15.53;71.80;98976.50;3581926;40;20079;-63
2021/07/03 01:00:18;;;;;;;16.48;12.15;;;;;;;15.48;72.24;98976.34;3582767;40;20053;-63
2021/07/03 01:02:48;;;;;;;12.45;10.52;;;;;;;15.43;72.06;98979.66;3581641;40;20041;-63
2021/07/03 01:05:18;;;;;;;11.77;10.57;;;;;;;15.40;71.84;98972.09;3579343;40;20089;-63
2021/07/03 01:07:47;;;;;;;12.02;10.70;;;;;;;15.32;72.15;98983.84;3581058;40;20094;-63
2021/07/03 01:10:21;;;;;;;13.57;11.88;;;;;;;15.31;72.41;98978.75;3579164;40;20064;-64
2021/07/03 01:12:54;;;;;;;14.18;11.45;;;;;;;15.29;72.24;98986.94;3578983;40;20074;-63
2021/07/03 01:15:23;;;;;;;16.00;11.50;;;;;;;15.31;72.36;98984.09;3579686;40;20053;-62
2021/07/03 01:17:54;;;;;;;15.55;11.05;;;;;;;15.32;72.18;98993.69;3580695;40;20057;-63
2021/07/03 01:20:22;;;;;;;14.55;11.02;;;;;;;15.32;72.17;98993.69;3579381;40;20061;-63
2021/07/03 01:22:54;;;;;;;14.20;11.32;;;;;;;15.27;72.24;98996.22;3579054;40;20081;-63
2021/07/03 01:25:24;;;;;;;15.43;12.50;;;;;;;15.31;72.13;99002.72;3579028;40;20051;-62
2021/07/03 01:27:59;;;;;;;13.07;10.15;;;;;;;15.32;72.05;98999.84;3579325;40;20405;-63
2021/07/03 01:30:29;;;;;;;13.45;10.65;;;;;;;15.33;72.33;98993.47;3579987;40;20045;-63
2021/07/03 01:32:57;;;;;;;12.85;9.90;;;;;;;15.29;72.43;98994.94;3580766;40;20045;-64
2021/07/03 01:35:29;;;;;;;13.02;11.63;;;;;;;15.24;72.06;98992.13;3581234;40;20060;-64
2021/07/03 01:38:03;;;;;;;14.43;11.32;;;;;;;15.15;72.74;98993.44;3579626;40;20057;-63
2021/07/03 01:40:33;;;;;;;13.75;10.32;;;;;;;15.11;72.36;98995.72;3580630;40;20041;-62
2021/07/03 01:43:05;;;;;;;11.00;9.82;;;;;;;15.07;73.10;98999.03;3580656;40;20085;-62
2021/07/03 01:45:33;;;;;;;12.13;10.55;;;;;;;15.15;72.89;99001.41;3580706;40;20051;-63
2021/07/03 01:48:04;;;;;;;15.38;11.02;;;;;;;15.13;72.08;98998.16;3580834;40;20033;-63
2021/07/03 01:50:34;;;;;;;13.57;10.88;;;;;;;15.04;72.50;98994.94;3580489;40;20115;-63
2021/07/03 01:53:04;;;;;;;12.95;10.90;;;;;;;15.03;73.18;98997.81;3580720;40;20040;-64
2021/07/03 01:55:34;;;;;;;13.73;10.13;;;;;;;15.08;72.75;98998.00;3581621;40;20037;-65
2021/07/03 01:58:02;;;;;;;13.65;11.10;;;;;;;15.09;73.03;98992.44;3580940;40;20040;-64
2021/07/03 02:00:39;;;;;;;14.18;10.57;;;;;;;14.96;72.81;98992.53;3581320;40;20045;-63
2021/07/03 02:03:16;;;;;;;13.30;10.95;;;;;;;14.93;73.05;98989.50;3581870;40;20036;-64
2021/07/03 02:05:48;;;;;;;13.90;10.95;;;;;;;14.93;72.58;98992.16;3580823;40;20045;-64
2021/07/03 02:08:22;;;;;;;16.50;11.10;;;;;;;14.83;72.66;98985.47;3581978;40;20395;-64
2021/07/03 02:11:00;;;;;;;14.15;11.60;;;;;;;14.75;72.73;98990.25;3579549;40;20395;-64
2021/07/03 02:13:30;;;;;;;12.10;10.50;;;;;;;14.69;73.32;98991.91;3578736;40;20049;-63
2021/07/03 02:15:59;;;;;;;12.45;10.40;;;;;;;14.69;73.52;98994.56;3578225;40;20368;-64
2021/07/03 02:18:33;;;;;;;13.13;10.57;;;;;;;14.71;73.13;98997.84;3578826;40;20398;-64
2021/07/03 02:21:08;;;;;;;11.68;10.43;;;;;;;14.72;73.40;98990.66;3579320;40;20055;-63
2021/07/03 02:23:38;;;;;;;10.60;9.52;;;;;;;14.73;73.51;98998.41;3578537;40;20051;-63
2021/07/03 02:26:06;;;;;;;13.45;11.10;;;;;;;14.75;73.04;98992.91;3578135;40;20495;-63
2021/07/03 02:28:36;;;;;;;11.68;10.48;;;;;;;14.67;73.00;98991.31;3578062;40;20041;-64
2021/07/03 02:31:13;;;;;;;14.90;11.25;;;;;;;14.59;73.02;98989.72;3578542;40;20353;-64
2021/07/03 02:33:46;;;;;;;16.15;10.85;;;;;;;14.52;73.72;98994.25;3578122;40;20398;-63
2021/07/03 02:36:17;;;;;;;14.10;10.55;;;;;;;14.59;73.42;98989.72;3578198;40;20049;-64
2021/07/03 02:38:47;;;;;;;13.10;11.00;;;;;;;14.60;73.33;98988.69;3579256;40;20434;-64
2021/07/03 02:41:19;;;;;;;14.07;12.13;;;;;;;14.57;73.18;98993.59;3578178;40;20040;-64
2021/07/03 02:43:48;;;;;;;17.75;11.98;;;;;;;14.47;73.27;98986.06;3578094;40;20402;-63
2021/07/03 02:46:16;;;;;;;13.45;11.10;;;;;;;14.36;73.85;98990.22;3578200;40;20057;-64
2021/07/03 02:48:44;;;;;;;16.40;11.38;;;;;;;14.33;73.88;98985.34;3578402;40;20052;-63
2021/07/03 02:51:12;;;;;;;15.05;10.57;;;;;;;14.34;74.25;98980.84;3578269;40;20051;-63
2021/07/03 02:53:40;;;;;;;13.98;10.75;;;;;;;14.38;74.24;98980.19;3578246;40;20041;-63
2021/07/03 02:56:10;;;;;;;14.32;11.40;;;;;;;14.38;74.08;98980.19;3578785;40;20049;-63
2021/07/03 02:58:38;;;;;;;13.43;11.18;;;;;;;14.36;73.96;98973.44;3578250;40;20061;-63
2021/07/03 03:01:07;;;;;;;13.57;11.32;;;;;;;14.37;73.66;98978.56;3579283;40;20402;-63
2021/07/03 03:03:36;;;;;;;12.88;9.90;;;;;;;14.34;73.79;98981.63;3578536;40;20056;-63
2021/07/03 03:06:04;;;;;;;14.63;10.52;;;;;;;14.30;73.43;98977.78;3578197;40;20026;-63
2021/07/03 03:08:32;;;;;;;12.80;10.75;;;;;;;14.28;73.65;98974.50;3579131;40;20045;-63
2021/07/03 03:11:02;;;;;;;11.60;10.40;;;;;;;14.26;73.78;98979.22;3578292;40;20053;-62
2021/07/03 03:13:32;;;;;;;18.52;10.73;;;;;;;14.24;73.47;98983.13;3579292;40;20106;-62
2021/07/03 03:16:00;;;;;;;11.93;10.00;;;;;;;14.23;73.88;98976.97;3578055;40;20127;-62
2021/07/03 03:18:30;;;;;;;11.40;10.23;;;;;;;14.25;73.34;98974.94;3578158;40;20087;-63
2021/07/03 03:20:58;;;;;;;12.80;9.32;;;;;;;14.24;73.52;98972.47;3578440;40;20103;-63
2021/07/03 03:23:26;;;;;;;13.18;9.68;;;;;;;14.31;73.45;98970.59;3577926;40;20052;-63
2021/07/03 03:25:55;;;;;;;18.65;9.68;;;;;;;14.35;73.14;98977.94;3577795;40;20049;-63
2021/07/03 03:28:25;;;;;;;12.05;10.27;;;;;;;14.37;73.22;98983.88;3579225;40;20438;-63
2021/07/03 03:30:54;;;;;;;15.15;10.90;;;;;;;14.35;73.52;98980.59;3579085;40;20080;-63
2021/07/03 03:33:27;;;;;;;12.55;8.98;;;;;;;14.36;73.36;98981.41;3578170;40;20033;-62
2021/07/03 03:36:13;;;;;;;12.73;10.90;;;;;;;14.32;73.32;98983.69;3577918;40;20442;-62
2021/07/03 03:38:42;;;;;;;16.10;11.23;;;;;;;14.24;72.94;98988.44;3578101;40;20048;-63
2021/07/03 03:41:10;;;;;;;10.88;9.18;;;;;;;14.16;73.12;98983.34;3577304;40;20048;-63
2021/07/03 03:43:39;;;;;;;14.25;10.43;;;;;;;14.13;73.41;98987.28;3578856;40;20247;-63
2021/07/03 03:46:11;;;;;;;13.32;10.20;;;;;;;14.16;73.72;98984.16;3578793;40;20040;-63
2021/07/03 03:48:43;;;;;;;11.15;9.68;;;;;;;14.22;73.62;98978.03;3578135;40;20430;-64
2021/07/03 03:51:12;;;;;;;12.95;10.00;;;;;;;14.23;73.60;98976.16;3578258;40;20403;-64
2021/07/03 03:53:42;;;;;;;13.07;11.20;;;;;;;14.24;73.14;98969.81;3581561;40;20033;-64
2021/07/03 03:56:10;;;;;;;11.70;10.32;;;;;;;14.19;73.17;98964.31;3583806;40;20080;-64
2021/07/03 03:58:43;;;;;;;14.05;11.90;;;;;;;14.18;73.33;98960.03;3584169;40;20188;-64
2021/07/03 04:01:16;;;;;;;12.30;10.50;;;;;;;14.10;73.24;98961.09;3584461;40;20049;-64
2021/07/03 04:03:44;;;;;;;10.50;9.25;;;;;;;14.08;73.43;98963.13;3584937;40;20080;-64
2021/07/03 04:06:13;;;;;;;13.65;9.55;;;;;;;14.16;73.28;98962.09;3583681;40;20032;-64
2021/07/03 04:08:42;;;;;;;14.75;9.75;;;;;;;14.23;73.72;98955.72;3582099;40;20052;-64
2021/07/03 04:11:09;;;;;;;11.63;10.23;;;;;;;14.29;73.36;98965.50;3577754;40;20048;-64
2021/07/03 04:13:38;;;;;;;11.82;9.82;;;;;;;14.40;72.90;98968.50;3578272;40;20045;-64
2021/07/03 04:16:06;;;;;;;10.02;8.70;;;;;;;14.46;72.47;98965.03;3578758;40;20056;-63
2021/07/03 04:18:35;;;;;;;14.93;10.15;;;;;;;14.56;72.22;98963.53;3578849;40;20130;-63
2021/07/03 04:21:03;;;;;;;13.43;9.52;;;;;;;14.66;72.40;98967.59;3578847;40;20045;-63
2021/07/03 04:23:31;;;;;;;12.98;8.95;;;;;;;14.77;72.31;98965.03;3577619;40;20088;-63
2021/07/03 04:25:58;;;;;;;11.32;9.02;;;;;;;14.89;71.62;98964.34;3578283;40;20044;-63
2021/07/03 04:28:29;;;;;;;10.23;9.13;;;;;;;14.92;71.05;98955.94;3577416;40;20511;-64
2021/07/03 04:30:57;;;;;;;12.23;9.75;;;;;;;14.95;71.17;98958.97;3578435;40;20049;-63
2021/07/03 04:33:24;;;;;;;10.93;9.80;;;;;;;14.91;71.16;98960.44;3578232;40;20069;-64
2021/07/03 04:35:54;;;;;;;10.95;9.85;;;;;;;14.84;70.93;98957.81;3578276;40;20060;-64
2021/07/03 04:38:21;;;;;;;11.75;10.48;;;;;;;14.88;71.38;98954.72;3578179;40;20406;-64
2021/07/03 04:40:49;;;;;;;12.57;9.80;;;;;;;15.01;70.99;98957.28;3578301;40;20048;-64
2021/07/03 04:43:17;;;;;;;12.27;10.20;;;;;;;14.96;70.79;98955.28;3578006;40;20053;-64
2021/07/03 04:45:45;;;;;;;10.55;9.45;;;;;;;15.03;71.29;98957.91;3578201;40;20048;-64
2021/07/03 04:48:13;;;;;;;13.75;9.30;;;;;;;15.13;71.02;98960.06;3577858;40;20049;-64
2021/07/03 04:50:46;;;;;;;10.52;9.32;;;;;;;15.14;70.77;98954.50;3577383;40;20307;-64
2021/07/03 04:53:15;;;;;;;14.98;9.27;;;;;;;15.17;70.19;98946.09;3579773;40;20048;-64
2021/07/03 04:55:45;;;;;;;11.15;10.05;;;;;;;15.33;70.26;98947.38;3578772;40;20045;-64
2021/07/03 04:58:14;;;;;;;12.80;10.57;;;;;;;15.37;69.42;98948.56;3578570;40;20055;-64
2021/07/03 05:00:43;;;;;;;10.82;9.75;;;;;;;15.39;69.88;98949.19;3579618;40;20056;-63
2021/07/03 05:03:11;;;;;;;12.13;9.38;;;;;;;15.49;69.76;98946.81;3579708;40;20045;-64
2021/07/03 05:05:39;;;;;;;11.82;9.88;;;;;;;15.66;69.09;98949.72;3580045;40;20078;-64
2021/07/03 05:08:06;;;;;;;11.95;9.80;;;;;;;15.82;68.69;98946.47;3578717;40;20075;-64
2021/07/03 05:10:35;;;;;;;11.50;9.20;;;;;;;15.87;68.40;98951.13;3579931;40;20049;-64
2021/07/03 05:13:03;;;;;;;10.95;8.73;;;;;;;15.91;68.07;98952.31;3579836;40;20045;-63
2021/07/03 05:15:31;;;;;;;10.23;9.15;;;;;;;15.97;68.62;98947.97;3579873;40;20409;-63
2021/07/03 05:17:59;;;;;;;12.98;10.50;;;;;;;16.04;68.30;98938.84;3579433;40;20044;-63
2021/07/03 05:20:27;;;;;;;10.02;9.02;;;;;;;16.07;68.15;98940.22;3579003;40;20075;-64
2021/07/03 05:22:55;;;;;;;13.18;10.70;;;;;;;16.22;67.63;98939.84;3579881;40;20056;-64
2021/07/03 05:25:22;;;;;;;10.98;9.63;;;;;;;16.21;67.60;98946.22;3578517;40;20033;-64
2021/07/03 05:27:51;;;;;;;13.45;9.68;;;;;;;16.25;67.80;98948.22;3579279;40;20089;-64
2021/07/03 05:30:20;;;;;;;12.43;9.55;;;;;;;16.32;67.38;98935.56;3579681;40;20335;-63
2021/07/03 05:32:47;;;;;;;11.00;9.32;;;;;;;16.37;67.48;98936.75;3579756;40;20056;-64
2021/07/03 05:35:16;;;;;;;11.32;10.13;;;;;;;16.42;67.12;98940.38;3578764;40;20064;-65
2021/07/03 05:37:44;;;;;;;14.98;13.40;;;;;;;16.43;67.34;98942.00;3579452;40;20041;-63
2021/07/03 05:40:13;;;;;;;17.63;14.63;;;;;;;16.57;67.32;98934.59;3579596;40;20077;-63
2021/07/03 05:42:41;;;;;;;13.85;11.02;;;;;;;16.67;67.27;98934.06;3579849;40;20053;-64
2021/07/03 05:45:14;;;;;;;12.70;9.85;;;;;;;16.75;67.53;98923.09;3579641;40;20053;-64
2021/07/03 05:47:49;;;;;;;10.48;9.02;;;;;;;16.86;66.48;98937.47;3579521;40;20045;-63
2021/07/03 05:50:17;;;;;;;10.40;8.90;;;;;;;16.98;66.66;98935.63;3579036;40;20051;-63
2021/07/03 05:52:45;;;;;;;12.25;10.23;;;;;;;17.00;66.32;98936.25;3614227;22;20422;-60
2021/07/03 05:55:14;;;;;;;10.68;9.60;;;;;;;16.99;66.62;98937.28;3580431;40;20052;-62
2021/07/03 05:57:42;;;;;;;14.45;12.75;;;;;;;17.17;66.60;98936.38;3579511;40;20033;-60
2021/07/03 06:00:16;;;;;;;10.43;8.77;;;;;;;17.32;65.82;98934.84;3580402;40;20401;-60
2021/07/03 06:02:45;;;;;;;27.02;22.70;;;;;;;17.40;65.47;98943.56;3581808;40;20118;-61
2021/07/03 06:05:57;;;;;;;10.15;9.15;;;;;;;17.37;65.42;98933.34;3582863;40;20563;-62
2021/07/03 06:08:31;;;;;;;13.90;9.38;;;;;;;17.42;65.45;98936.94;3581130;40;20294;-64
2021/07/03 06:11:24;;;;;;;14.98;10.63;;;;;;;17.63;65.00;98934.69;3581732;40;20055;-62
2021/07/03 06:13:54;;;;;;;9.80;8.80;;;;;;;17.77;64.47;98941.47;3580881;40;20037;-61
2021/07/03 06:16:23;;;;;;;11.65;9.07;;;;;;;17.81;63.84;98932.72;3580954;40;20049;-61
2021/07/03 06:18:51;;;;;;;10.18;9.18;;;;;;;17.80;64.04;98931.13;3580275;40;20049;-61
2021/07/03 06:21:19;;;;;;;10.23;9.13;;;;;;;17.85;64.26;98933.06;3581154;40;20065;-61
2021/07/03 06:23:46;;;;;;;10.73;9.60;;;;;;;17.95;63.64;98935.13;3581217;40;20041;-61
2021/07/03 06:26:15;;;;;;;10.95;9.93;;;;;;;17.81;64.11;98927.38;3579929;40;20122;-61
2021/07/03 06:28:42;;;;;;;10.77;9.68;;;;;;;17.88;63.70;98931.78;3580000;40;20036;-61
2021/07/03 06:31:10;;;;;;;11.15;9.18;;;;;;;18.00;63.80;98932.53;3580264;40;20081;-61
2021/07/03 06:33:39;;;;;;;10.98;8.43;;;;;;;18.04;63.29;98925.69;3579046;40;20053;-61
2021/07/03 06:36:07;;;;;;;10.35;9.43;;;;;;;18.14;63.35;98925.88;3578792;40;20037;-61
2021/07/03 06:38:35;;;;;;;10.98;9.07;;;;;;;18.22;62.57;98920.16;3579455;40;20044;-61
2021/07/03 06:41:03;;;;;;;10.07;8.73;;;;;;;18.32;62.31;98924.88;3583792;40;20056;-62
2021/07/03 06:43:30;;;;;;;8.88;7.97;;;;;;;18.44;61.92;98925.63;3583937;40;20325;-61
2021/07/03 06:45:59;;;;;;;11.77;9.27;;;;;;;18.62;61.96;98918.44;3583793;40;20091;-61
2021/07/03 06:48:27;;;;;;;10.68;9.57;;;;;;;18.76;61.11;98914.41;3579694;40;20060;-61
2021/07/03 06:50:56;;;;;;;12.23;8.93;;;;;;;18.86;60.89;98905.72;3578126;40;20048;-62
2021/07/03 06:53:23;;;;;;;9.93;8.88;;;;;;;18.95;61.17;98913.13;3578707;40;20056;-61
2021/07/03 06:55:51;;;;;;;10.02;9.02;;;;;;;19.09;60.22;98912.78;3581686;40;20061;-61
2021/07/03 06:58:19;;;;;;;9.85;8.55;;;;;;;19.08;60.10;98913.84;3581758;40;20053;-61
2021/07/03 07:00:47;;;;;;;11.10;9.90;;;;;;;19.14;60.47;98913.66;3581385;40;20326;-61
2021/07/03 07:03:14;;;;;;;9.35;8.45;;;;;;;19.25;59.91;98911.97;3581480;40;20044;-61
2021/07/03 07:05:42;;;;;;;10.82;9.55;;;;;;;19.34;59.90;98925.75;3580151;40;20098;-62
2021/07/03 07:08:11;;;;;;;10.25;8.57;;;;;;;19.38;60.35;98918.84;3580322;40;20076;-62
2021/07/03 07:10:39;;;;;;;9.65;8.57;;;;;;;19.58;60.35;98926.34;3583097;40;20037;-61
2021/07/03 07:13:08;;;;;;;11.57;9.20;;;;;;;19.74;59.75;98920.16;3584545;40;20089;-62
2021/07/03 07:15:36;;;;;;;11.80;10.30;;;;;;;19.84;58.76;98919.47;3584612;40;20401;-62
2021/07/03 07:18:04;;;;;;;11.63;9.10;;;;;;;19.90;58.47;98921.16;3583540;40;20036;-62
2021/07/03 07:20:32;;;;;;;11.60;10.40;;;;;;;20.03;58.43;98916.19;3583278;40;20078;-61
2021/07/03 07:23:00;;;;;;;10.60;9.60;;;;;;;20.19;58.22;98919.06;3583233;40;20053;-61
2021/07/03 07:25:29;;;;;;;9.52;8.25;;;;;;;20.23;57.41;98928.22;3580054;40;20049;-61
2021/07/03 07:27:57;;;;;;;10.07;8.38;;;;;;;20.21;57.23;98922.31;3579568;40;20059;-60
2021/07/03 07:30:25;;;;;;;10.38;8.63;;;;;;;20.22;57.46;98913.19;3579441;40;20073;-61
2021/07/03 07:32:53;;;;;;;14.00;12.60;;;;;;;20.35;56.82;98914.66;3578734;40;20065;-61
2021/07/03 07:35:21;;;;;;;12.55;10.02;;;;;;;20.48;56.02;98917.78;3579687;40;20143;-62
2021/07/03 07:37:49;;;;;;;11.75;9.73;;;;;;;20.61;55.94;98923.78;3581493;40;20331;-62
2021/07/03 07:40:18;;;;;;;10.50;9.27;;;;;;;20.69;55.42;98901.84;3582247;40;20040;-61
2021/07/03 07:42:47;;;;;;;12.00;10.70;;;;;;;20.78;55.38;98909.19;3583651;40;20041;-61
2021/07/03 07:45:15;;;;;;;10.80;9.48;;;;;;;20.90;55.53;98910.88;3584499;40;20056;-60
2021/07/03 07:47:46;;;;;;;9.13;8.23;;;;;;;21.00;55.10;98908.28;3583813;40;20061;-60
2021/07/03 07:50:15;;;;;;;9.15;8.35;;;;;;;21.11;54.43;98907.28;3582780;40;20059;-61
2021/07/03 07:52:43;;;;;;;10.93;8.75;;;;;;;21.15;54.31;98904.91;3579085;40;20041;-60
2021/07/03 07:55:12;;;;;;;8.23;7.47;;;;;;;21.27;54.13;98897.44;3580361;40;20401;-61
2021/07/03 07:57:40;;;;;;;9.18;8.27;;;;;;;21.34;53.93;98889.97;3580229;40;20048;-61
2021/07/03 08:00:11;;;;;;;10.30;8.20;;;;;;;21.41;53.52;98889.75;3579475;40;20045;-60
2021/07/03 08:02:38;;;;;;;9.88;8.55;;;;;;;21.45;53.30;98880.09;3579431;40;20394;-62
2021/07/03 08:05:08;;;;;;;8.88;7.97;;;;;;;21.49;53.58;98881.19;3579408;40;20351;-61
2021/07/03 08:07:36;;;;;;;8.75;7.80;;;;;;;21.50;53.64;98880.09;3579176;40;20044;-61
2021/07/03 08:10:04;;;;;;;7.68;6.88;;;;;;;21.48;53.90;98880.38;3578943;40;20093;-62
2021/07/03 08:12:32;;;;;;;8.05;7.30;;;;;;;21.62;53.88;98879.88;3578641;40;20053;-61
2021/07/03 08:15:00;;;;;;;9.27;7.80;;;;;;;21.82;53.64;98869.19;3579271;40;20045;-61
2021/07/03 08:17:29;;;;;;;8.68;7.78;;;;;;;21.91;53.05;98869.50;3579773;40;20194;-60
2021/07/03 08:19:57;;;;;;;9.98;7.68;;;;;;;21.86;52.83;98856.03;3579696;40;20045;-60
2021/07/03 08:22:25;;;;;;;12.38;9.23;;;;;;;22.00;53.08;98855.28;3577345;40;20061;-60
2021/07/03 08:24:53;;;;;;;8.25;7.45;;;;;;;22.19;51.98;98854.78;3577977;40;20077;-59
2021/07/03 08:27:20;;;;;;;8.88;7.57;;;;;;;22.28;51.29;98857.75;3579327;40;20052;-60
2021/07/03 08:29:48;;;;;;;8.68;7.57;;;;;;;22.35;50.99;98851.03;3580082;40;20110;-60
2021/07/03 08:32:16;;;;;;;8.25;7.53;;;;;;;22.49;50.62;98845.91;3579314;40;20045;-59
2021/07/03 08:34:45;;;;;;;10.52;9.15;;;;;;;22.52;50.25;98853.47;3580146;40;20060;-59
2021/07/03 08:37:13;;;;;;;12.88;11.57;;;;;;;22.50;50.40;98842.16;3579646;40;20041;-60
2021/07/03 08:39:40;;;;;;;11.35;8.20;;;;;;;22.54;50.47;98845.94;3579891;40;20088;-60
2021/07/03 08:42:08;;;;;;;11.45;7.82;;;;;;;22.61;50.29;98843.75;3579907;40;20045;-60
2021/07/03 08:44:37;;;;;;;9.00;8.10;;;;;;;22.78;49.75;98840.81;3580084;40;20037;-60
2021/07/03 08:47:08;;;;;;;8.23;7.40;;;;;;;22.85;49.20;98848.59;3579940;40;20049;-60
2021/07/03 08:49:35;;;;;;;8.15;6.93;;;;;;;22.84;49.48;98847.78;3580966;40;20057;-59
2021/07/03 08:52:05;;;;;;;7.13;6.43;;;;;;;22.82;49.54;98839.19;3581417;40;20052;-59
2021/07/03 08:54:33;;;;;;;7.32;6.63;;;;;;;22.83;49.20;98838.09;3581646;40;20049;-59
2021/07/03 08:57:20;;;;;;;9.65;7.50;;;;;;;22.93;49.29;98835.41;3581806;40;20133;-60
2021/07/03 08:59:55;;;;;;;6.90;6.20;;;;;;;23.07;48.83;98830.28;3581454;40;20045;-60
2021/07/03 09:02:32;;;;;;;6.50;5.90;;;;;;;23.08;48.47;98818.41;3582098;40;20045;-59
2021/07/03 09:05:00;;;;;;;6.72;6.03;;;;;;;23.12;48.47;98818.66;3582289;40;20049;-59
2021/07/03 09:07:35;;;;;;;7.97;5.90;;;;;;;23.21;48.01;98814.31;3581894;40;20048;-60
2021/07/03 09:10:04;;;;;;;6.50;5.88;;;;;;;23.32;47.92;98817.78;3582237;40;20335;-59
2021/07/03 09:12:34;;;;;;;7.65;5.72;;;;;;;23.44;47.30;98819.09;3581699;40;20084;-60
2021/07/03 09:15:10;;;;;;;6.68;5.57;;;;;;;23.50;46.93;98822.56;3582285;40;20130;-59
2021/07/03 09:17:53;;;;;;;6.57;5.97;;;;;;;23.53;46.74;98819.31;3581547;40;20032;-60
2021/07/03 09:20:27;;;;;;;6.30;5.70;;;;;;;23.64;46.80;98822.78;3581501;40;20045;-60
2021/07/03 09:23:10;;;;;;;6.75;6.05;;;;;;;23.80;46.41;98823.50;3581013;40;20081;-60
2021/07/03 09:25:40;;;;;;;6.68;6.13;;;;;;;23.88;45.54;98817.53;3581139;40;20422;-60
2021/07/03 09:28:13;;;;;;;6.13;5.55;;;;;;;23.90;46.12;98815.38;3580998;40;20053;-60
2021/07/03 09:30:43;;;;;;;9.50;5.38;;;;;;;24.05;45.75;98822.56;3580593;40;20063;-60
2021/07/03 09:33:11;;;;;;;6.20;5.68;;;;;;;24.22;44.39;98814.88;3581575;40;20045;-59
2021/07/03 09:35:39;;;;;;;6.50;5.88;;;;;;;24.28;44.35;98818.34;3581789;40;20085;-59
2021/07/03 09:38:09;;;;;;;6.20;5.68;;;;;;;24.41;44.15;98813.16;3581471;40;20382;-59
2021/07/03 09:40:38;;;;;;;6.30;5.70;;;;;;;24.52;44.18;98805.75;3582508;40;20361;-59
2021/07/03 09:43:09;;;;;;;6.40;5.78;;;;;;;24.64;43.73;98810.78;3582283;40;20060;-60
2021/07/03 09:45:38;;;;;;;8.82;6.38;;;;;;;24.76;43.00;98811.22;3580948;40;20053;-60
2021/07/03 09:48:08;;;;;;;12.32;6.50;;;;;;;24.93;43.04;98813.47;3580992;40;20405;-60
2021/07/03 09:50:38;;;;;;;5.82;5.20;;;;;;;24.92;42.35;98809.16;3581345;40;20065;-59
2021/07/03 09:53:06;;;;;;;7.30;6.70;;;;;;;25.02;42.35;98819.84;3581088;40;20070;-59
2021/07/03 09:55:36;;;;;;;6.35;4.95;;;;;;;25.24;40.91;98810.47;3580257;40;20053;-59
2021/07/03 09:58:07;;;;;;;4.45;4.05;;;;;;;25.26;39.98;98811.78;3579759;40;20041;-59
2021/07/03 10:00:36;;;;;;;5.47;3.90;;;;;;;25.28;39.47;98801.50;3579960;40;20142;-58
2021/07/03 10:03:07;;;;;;;6.63;4.60;;;;;;;25.41;39.17;98798.06;3580752;40;20057;-59
2021/07/03 10:05:38;;;;;;;5.13;4.60;;;;;;;25.59;38.82;98796.47;3579402;40;20089;-59
2021/07/03 10:08:08;;;;;;;4.30;3.90;;;;;;;25.62;38.25;98790.50;3580121;40;20048;-59
2021/07/03 10:10:40;;;;;;;4.22;3.83;;;;;;;25.77;38.43;98785.97;3579921;40;20060;-59
2021/07/03 10:13:11;;;;;;;4.53;4.10;;;;;;;25.87;37.38;98781.22;3579429;40;20064;-57
2021/07/03 10:15:39;;;;;;;4.50;3.85;;;;;;;25.94;36.86;98778.16;3579526;40;20033;-58
2021/07/03 10:18:09;;;;;;;4.57;3.78;;;;;;;25.75;36.52;98770.00;3579802;40;20073;-59
2021/07/03 10:20:37;;;;;;;3.50;3.22;;;;;;;25.58;36.18;98772.41;3580282;40;20056;-61
2021/07/03 10:23:05;;;;;;;4.38;3.78;;;;;;;25.53;35.89;98773.28;3580659;40;20045;-60
2021/07/03 10:25:36;;;;;;;4.00;3.60;;;;;;;25.56;35.86;98769.22;3580201;40;20080;-61
2021/07/03 10:28:08;;;;;;;4.40;3.50;;;;;;;25.62;34.94;98763.41;3579885;40;20076;-61
2021/07/03 10:30:38;;;;;;;3.80;3.40;;;;;;;25.62;35.83;98763.41;3579400;40;20048;-61
2021/07/03 10:33:08;;;;;;;4.13;3.72;;;;;;;25.65;35.55;98762.03;3579028;40;20359;-61
2021/07/03 10:35:44;;;;;;;4.05;3.30;;;;;;;25.79;35.10;98756.72;3578886;40;20080;-61
2021/07/03 10:38:19;;;;;;;3.65;3.35;;;;;;;25.96;35.17;98758.91;3578850;40;20079;-61
2021/07/03 10:40:48;;;;;;;3.55;3.25;;;;;;;25.82;34.60;98759.66;3579116;40;20091;-61
2021/07/03 10:43:17;;;;;;;5.43;4.10;;;;;;;25.99;34.67;98753.69;3579031;40;20076;-60
2021/07/03 10:45:48;;;;;;;3.70;3.40;;;;;;;26.14;34.13;98761.59;3579019;40;20402;-60
2021/07/03 10:48:18;;;;;;;5.07;4.32;;;;;;;26.27;34.97;98753.81;3578553;40;20045;-61
2021/07/03 10:50:47;;;;;;;6.07;3.78;;;;;;;26.60;34.31;98754.59;3579284;40;20056;-60
2021/07/03 10:53:26;;;;;;;4.60;3.90;;;;;;;26.62;33.61;98752.41;3578985;40;20323;-60
2021/07/03 10:55:55;;;;;;;4.13;3.72;;;;;;;26.34;33.82;98749.63;3578879;40;20397;-60
2021/07/03 10:58:30;;;;;;;4.85;3.33;;;;;;;26.26;34.43;98758.44;3578960;40;20057;-60
2021/07/03 11:01:08;;;;;;;4.70;4.30;;;;;;;26.34;34.75;98746.09;3578836;40;20056;-59
2021/07/03 11:03:43;;;;;;;5.68;4.60;;;;;;;26.33;35.15;98741.75;3579078;40;20053;-60
2021/07/03 11:06:16;;;;;;;5.32;4.03;;;;;;;26.33;35.33;98744.47;3577829;40;20053;-60
2021/07/03 11:08:49;;;;;;;5.18;4.63;;;;;;;26.39;35.20;98744.09;3579226;40;20053;-60
2021/07/03 11:11:21;;;;;;;4.72;4.00;;;;;;;26.37;34.29;98742.78;3579273;40;20079;-61
2021/07/03 11:13:56;;;;;;;6.70;3.35;;;;;;;26.18;34.11;98738.22;3579052;40;20454;-59
2021/07/03 11:16:23;;;;;;;4.72;3.50;;;;;;;26.12;34.00;98739.41;3578577;40;20084;-59
2021/07/03 11:18:51;;;;;;;4.60;3.90;;;;;;;26.32;34.33;98737.47;3579005;40;20053;-59
2021/07/03 11:21:19;;;;;;;3.72;3.42;;;;;;;26.37;34.57;98729.22;3579298;40;20056;-59
2021/07/03 11:23:47;;;;;;;4.63;4.07;;;;;;;26.40;34.42;98736.78;3578585;40;20041;-58
2021/07/03 11:26:17;;;;;;;5.45;4.10;;;;;;;26.37;34.02;98735.47;3579714;40;20053;-59
2021/07/03 11:28:58;;;;;;;4.07;3.72;;;;;;;26.41;34.35;98731.06;3579317;40;20068;-59
2021/07/03 11:31:26;;;;;;;4.65;3.78;;;;;;;26.46;34.31;98730.19;3579175;40;20044;-59
2021/07/03 11:33:55;;;;;;;3.85;3.55;;;;;;;26.54;33.76;98724.09;3579071;40;20424;-59
2021/07/03 11:36:23;;;;;;;4.20;3.80;;;;;;;26.48;34.18;98722.56;3578628;40;20060;-59